Flight Track Log - Related Links

Times and Time Zones

All times are in EDT time to prevent confusion due to time zone crossing. See the SKW3459 flight status page for this flight to view local times or setup timezone preferences in your user account.

Time Position Orientation Groundspeed Altitude Reporting Facility
EDT Latitude Longitude Course Direction KTS MPH feet Rate Location/Type
Thu 08:55:05 PM 33.8500 -118.2167 336° Northwest 196 226 2,600  Level Southern California TRACON
Thu 08:56:06 PM 33.8647 -118.2767 286° West 214 246 4,600 2,488 Climbing Los Angeles Center
Thu 08:57:08 PM 33.8761 -118.3489 281° West 220 253 7,700 2,129 Climbing Los Angeles Center
Thu 08:58:10 PM 33.8900 -118.4336 281° West 261 300 9,000 629 Climbing Los Angeles Center
Thu 08:59:12 PM 33.9089 -118.5464 281° West 285 328 9,000  Level Los Angeles Center
Thu 09:00:00 PM 34.4611 -118.6867 336° Northwest  Level FlightAware Approximate
Thu 09:00:14 PM 33.9253 -118.6417 282° West 291 335 9,000  Level Los Angeles Center
Thu 09:01:16 PM 33.9911 -118.6939 327° Northwest 284 327 9,000  Level Los Angeles Center
Thu 09:02:18 PM 34.0714 -118.6947 360° North 277 319 9,000 435 Level Los Angeles Center
Thu 09:03:20 PM 34.1394 -118.6778 12° North 275 316 9,900 1,597 Climbing Los Angeles Center
Thu 09:04:22 PM 34.2194 -118.6603 10° North 289 333 12,300 2,371 Climbing Los Angeles Center
Thu 09:05:24 PM 34.3017 -118.6383 12° North 300 345 14,800 2,032 Climbing Los Angeles Center
Thu 09:06:26 PM 34.4064 -118.6789 342° North 345 397 16,500 1,694 Climbing Los Angeles Center
Thu 09:07:28 PM 34.4994 -118.7208 340° North 357 411 18,300 1,824 Climbing Los Angeles Center
Thu 09:08:31 PM 34.5950 -118.7636 340° North 366 421 20,300 1,632 Climbing Los Angeles Center
Thu 09:09:33 PM 34.6917 -118.8114 338° Northwest 376 433 21,700 1,452 Climbing Los Angeles Center
Thu 09:10:35 PM 34.7908 -118.8572 339° North 380 437 23,300 1,452 Climbing Los Angeles Center
Thu 09:11:37 PM 34.9017 -118.8950 344° North 392 451 24,700 1,306 Climbing Los Angeles Center
Thu 09:12:39 PM 35.0303 -118.9392 344° North 402 463 26,000 1,161 Climbing Los Angeles Center
Thu 09:13:41 PM 35.1417 -118.9778 344° North 415 478 27,100 1,065 Climbing Los Angeles Center
Thu 09:14:43 PM 35.2542 -119.0164 344° North 422 486 28,200 1,065 Climbing Los Angeles Center
Thu 09:15:45 PM 35.3683 -119.0556 344° North 426 490 29,300 1,113 Climbing Los Angeles Center
Thu 09:16:47 PM 35.4781 -119.0944 344° North 416 479 30,500 1,016 Climbing Los Angeles Center
Thu 09:17:49 PM 35.5867 -119.1383 342° North 414 476 31,400 1,008 Climbing Los Angeles Center
Thu 09:18:52 PM 35.7192 -119.1869 343° North 414 476 32,600 1,056 Climbing Los Angeles Center
Thu 09:19:54 PM 35.8300 -119.2283 343° North 416 479 33,600 968 Climbing Los Angeles Center
Thu 09:20:56 PM 35.9383 -119.2689 343° North 411 473 34,600 872 Climbing Los Angeles Center
Thu 09:21:51 PM 36.0456 -119.3106 343° North 409 471 35,300 828 Climbing Oakland Center
Thu 09:22:52 PM 36.1536 -119.3500 344° North 407 468 36,200 885 Climbing Oakland Center
Thu 09:23:53 PM 36.2597 -119.3906 343° North 401 461 37,100 836 Climbing Oakland Center
Thu 09:24:54 PM 36.3642 -119.4306 343° North 394 453 37,900 439 Climbing Oakland Center
Thu 09:25:56 PM 36.4681 -119.4686 344° North 391 450 38,000 49 Climbing Oakland Center
Thu 09:26:57 PM 36.5747 -119.5097 343° North 400 460 38,000  Level Oakland Center
Thu 09:27:58 PM 36.6833 -119.5500 343° North 407 468 38,000  Level Oakland Center
Thu 09:28:59 PM 36.7922 -119.5917 343° North 410 472 38,000  Level Oakland Center
Thu 09:30:01 PM 36.9222 -119.6425 343° North 409 471 38,000  Level Oakland Center
Thu 09:31:02 PM 37.0308 -119.6839 343° North 408 470 38,000  Level Oakland Center
Thu 09:32:03 PM 37.1383 -119.7253 343° North 406 467 38,000  Level Oakland Center
Thu 09:33:04 PM 37.2464 -119.7669 343° North 406 467 38,000  Level Oakland Center
Thu 09:34:06 PM 37.3567 -119.8083 343° North 405 466 38,000  Level Oakland Center
Thu 09:35:07 PM 37.4650 -119.8489 343° North 406 467 38,000  Level Oakland Center
Thu 09:36:08 PM 37.5731 -119.8917 343° North 406 467 38,000  Level Oakland Center
Thu 09:37:09 PM 37.6778 -119.9353 342° North 396 456 38,000  Level Oakland Center
Thu 09:38:11 PM 37.7853 -119.9772 343° North 404 465 38,000  Level Oakland Center
Thu 09:39:12 PM 37.8939 -120.0197 343° North 407 468 38,000  Level Oakland Center
Thu 09:40:13 PM 38.0256 -120.0700 343° North 413 475 38,000  Level Oakland Center
Thu 09:41:14 PM 38.1317 -120.1131 342° North 404 465 38,000  Level Oakland Center
Thu 09:42:16 PM 38.2397 -120.1564 343° North 406 467 38,000  Level Oakland Center
Thu 09:43:17 PM 38.3475 -120.2006 342° North 408 470 38,000  Level Oakland Center
Thu 09:44:18 PM 38.4547 -120.2433 343° North 406 467 38,000  Level Oakland Center
Thu 09:45:20 PM 38.5625 -120.2875 342° North 407 468 38,000  Level Oakland Center
Thu 09:46:21 PM 38.6597 -120.3558 331° Northwest 408 470 38,000  Level Oakland Center
Thu 09:47:22 PM 38.7517 -120.4381 325° Northwest 405 466 38,000  Level Oakland Center
Thu 09:48:23 PM 38.8503 -120.5061 332° Northwest 411 473 38,000  Level Oakland Center
Thu 09:49:25 PM 38.9781 -120.5544 344° North 403 464 38,000  Level Oakland Center
Thu 09:50:26 PM 39.0858 -120.5972 343° North 405 466 38,000  Level Oakland Center
Thu 09:51:27 PM 39.1911 -120.6378 343° North 400 460 38,000  Level Oakland Center
Thu 09:52:29 PM 39.2961 -120.6800 343° North 397 457 38,000  Level Oakland Center
Thu 09:53:30 PM 39.4008 -120.7203 343° North 394 453 38,000  Level Oakland Center
Thu 09:54:31 PM 39.5058 -120.7622 343° North 396 456 38,000  Level Oakland Center
Thu 09:55:32 PM 39.6103 -120.8042 343° North 395 455 38,000  Level Oakland Center
Thu 09:56:34 PM 39.7142 -120.8461 343° North 393 452 38,000  Level Oakland Center
Thu 09:57:36 PM 39.8389 -120.8958 343° North 390 449 38,000  Level Oakland Center
Thu 09:58:36 PM 39.9442 -120.9378 343° North 395 455 38,000  Level Oakland Center
Thu 09:59:38 PM 40.0392 -120.9767 343° North 394 453 38,000  Level Oakland Center
Thu 10:00:39 PM 40.1436 -121.0183 343° North 395 455 38,000  Level Oakland Center
Thu 10:01:40 PM 40.2489 -121.0619 342° North 396 456 38,000  Level Oakland Center
Thu 10:02:42 PM 40.3750 -121.1139 343° North 398 458 38,000  Level Oakland Center
Thu 10:03:43 PM 40.4794 -121.1567 343° North 395 455 38,000  Level Oakland Center
Thu 10:04:44 PM 40.5761 -121.1975 342° North 395 455 38,000  Level Oakland Center
Thu 10:05:45 PM 40.6806 -121.2408 343° North 393 452 38,000 -492 Level Oakland Center
Thu 10:06:46 PM 40.7858 -121.2844 343° North 394 453 37,000 -976 Descending Oakland Center
Thu 10:07:48 PM 40.8936 -121.3286 343° North 383 441 36,000 -476 Descending Oakland Center
Thu 10:08:52 PM 41.0022 -121.3733 343° North 366 421 36,000  Level Seattle Center
Thu 10:09:53 PM 41.0986 -121.4133 343° North 364 419 36,000  Level Seattle Center
Thu 10:10:54 PM 41.1947 -121.4542 342° North 364 419 36,000  Level Seattle Center
Thu 10:11:55 PM 41.2911 -121.4950 342° North 363 418 36,000  Level Seattle Center
Thu 10:12:56 PM 41.3867 -121.5356 342° North 360 414 36,000  Level Seattle Center
Thu 10:13:57 PM 41.4842 -121.5758 343° North 364 419 36,000  Level Seattle Center
Thu 10:14:58 PM 41.5811 -121.6175 342° North 366 421 36,000  Level Seattle Center
Thu 10:15:59 PM 41.6783 -121.6581 343° North 367 422 36,000  Level Seattle Center
Thu 10:16:59 PM 41.7744 -121.6997 342° North 366 421 36,000  Level Seattle Center
Thu 10:18:00 PM 41.8711 -121.7408 342° North 366 421 36,000  Level Seattle Center
Thu 10:19:01 PM 41.9678 -121.7811 343° North 366 421 36,000  Level Seattle Center
Thu 10:20:02 PM 42.0858 -121.8319 342° North 378 435 36,000  Level Seattle Center
Thu 10:21:03 PM 42.1833 -121.8739 342° North 378 435 36,000  Level Seattle Center
Thu 10:22:04 PM 42.2800 -121.9169 342° North 371 427 36,000  Level Seattle Center
Thu 10:23:05 PM 42.3789 -121.9597 342° North 374 430 36,000  Level Seattle Center
Thu 10:24:06 PM 42.4781 -122.0022 342° North 373 429 36,000  Level Seattle Center
Thu 10:25:07 PM 42.5753 -122.0442 342° North 369 425 36,000  Level Seattle Center
Thu 10:26:07 PM 42.6717 -122.0869 342° North 365 420 36,000  Level Seattle Center
Thu 10:27:08 PM 42.7675 -122.1292 342° North 362 417 36,000  Level Seattle Center
Thu 10:28:09 PM 42.8628 -122.1708 342° North 361 415 36,000  Level Seattle Center
Thu 10:29:10 PM 42.9719 -122.2183 342° North 361 415 36,000  Level Seattle Center
Thu 10:30:11 PM 43.0675 -122.2572 343° North 359 413 36,000  Level Seattle Center
Thu 10:31:12 PM 43.1622 -122.3014 341° North 358 412 36,000  Level Seattle Center
Thu 10:32:13 PM 43.2561 -122.3425 342° North 355 409 36,000  Level Seattle Center
Thu 10:33:14 PM 43.3506 -122.3867 341° North 357 411 36,000  Level Seattle Center
Thu 10:34:15 PM 43.4444 -122.4294 342° North 355 409 36,000  Level Seattle Center
Thu 10:35:16 PM 43.5394 -122.4719 342° North 359 413 36,000  Level Seattle Center
Thu 10:36:16 PM 43.6347 -122.5153 342° North 359 413 36,000  Level Seattle Center
Thu 10:37:17 PM 43.7300 -122.5592 342° North 360 414 36,000  Level Seattle Center
Thu 10:38:18 PM 43.8442 -122.6122 341° North 361 415 36,000  Level Seattle Center
Thu 10:39:19 PM 43.9403 -122.6558 342° North 362 417 36,000  Level Seattle Center
Thu 10:40:20 PM 44.0381 -122.6992 342° North 366 421 36,000 -148 Level Seattle Center
Thu 10:41:21 PM 44.1353 -122.7433 342° North 369 425 35,700 -1,388 Descending Seattle Center
Thu 10:42:21 PM 44.2428 -122.7425 360° North 389 448 33,200 -2,579 Descending Seattle Center
Thu 10:43:22 PM 44.3547 -122.7322 North 385 443 30,500 -2,607 Descending Seattle Center
Thu 10:44:23 PM 44.4581 -122.7222 North 377 434 27,900 -2,852 Descending Seattle Center
Thu 10:45:24 PM 44.5619 -122.7119 North 379 436 24,700 -3,148 Descending Seattle Center
Thu 10:46:25 PM 44.6642 -122.7019 North 372 428 21,500 -3,273 Descending Seattle Center
Thu 10:47:03 PM 44.7367 -122.6969 North 369 425 19,300 -3,049 Descending Seattle Center
Thu 10:47:26 PM 44.7656 -122.6922 North 369 425 18,400 -2,571 Descending Seattle Center
Thu 10:47:52 PM 44.8114 -122.6914 North 354 407 17,200 -2,852 Descending Seattle Center
Thu 10:48:27 PM 44.8622 -122.6831 North 355 409 15,500 -3,443 Descending Seattle Center
Thu 10:48:53 PM 44.9153 -122.6800 North 350 403 13,700 -3,148 Descending Seattle Center
Thu 10:49:28 PM 44.9578 -122.6731 North 348 400 12,300 -2,557 Descending Seattle Center
Thu 10:49:54 PM 45.0106 -122.6692 North 339 390 11,100 -1,300 Descending Seattle Center
Thu 10:50:28 PM 45.0492 -122.6642 North 337 388 11,000 -222 Descending Seattle Center
Thu 10:50:48 PM 45.0911 -122.6608 North 321 369 10,900 -590 Descending Seattle Center
Thu 10:51:29 PM 45.1364 -122.6558 North 322 371 10,400 -885 Descending Seattle Center
Thu 10:51:49 PM 45.1719 -122.6528 North 271 312 10,000 -1,082 Descending Seattle Center
Thu 10:52:30 PM 45.2100 -122.6475 North 272 313 9,300 -1,377 Descending Seattle Center
Thu 10:52:50 PM 45.2439 -122.6450 North 256 295 8,600 -1,475 Descending Seattle Center
Thu 10:53:31 PM 45.2811 -122.6403 North 260 299 7,800 -1,500 Descending Seattle Center
Thu 10:53:50 PM 45.3161 -122.6372 North 261 300 7,100 -1,967 Descending Seattle Center
Thu 10:54:32 PM 45.3683 -122.6308 North 262 302 5,800 -1,672 Descending Seattle Center
Thu 10:54:51 PM 45.3881 -122.6294 North 262 302 5,400 -787 Descending Seattle Center
Thu 10:55:33 PM 45.4381 -122.6169 10° North 258 297 5,000 -295 Descending Seattle Center
Thu 10:55:52 PM 45.4447 -122.5881 72° East 257 296 5,100 -600 Climbing Seattle Center
Thu 10:56:33 PM 45.4311 -122.5206 106° East 256 295 4,400 -984 Descending Seattle Center
Thu 10:56:53 PM 45.4181 -122.4881 120° Southeast 261 300 4,100 -492 Descending Seattle Center
Thu 10:57:34 PM 45.4211 -122.4275 86° East 264 304 3,900 -300 Descending Seattle Center
Thu 10:57:53 PM 45.4394 -122.4022 44° Northeast 248 285 3,800 -393 Descending Seattle Center
Thu 10:58:35 PM 45.4758 -122.3736 29° Northeast 246 283 3,500 -269 Descending Seattle Center
Thu 10:59:00 PM 45.4964 -122.3942 325° Northwest 204 235 3,500 -393 Level Seattle Center
Thu 10:59:36 PM 45.5186 -122.4256 315° West 208 239 3,100 -787 Descending Seattle Center
Thu 11:00:01 PM 45.5278 -122.4522 296° West 160 184 2,700 -984 Descending Seattle Center
Thu 11:00:37 PM 45.5408 -122.4806 303° West 177 204 2,100 -1,100 Descending Seattle Center
Thu 11:01:01 PM 45.5494 -122.5050 297° West 147 169 1,600 -984 Descending Seattle Center
Thu 11:01:38 PM 45.5592 -122.5281 301° West 160 184 1,100 -787 Descending Seattle Center
Thu 11:02:02 PM 45.5639 -122.5453 291° West 112 129 800 -600 Descending Seattle Center
Thu 11:02:38 PM 45.5756 -122.5714 303° West 144 166 500 -500 Descending Seattle Center
Thu 11:04:00 PM 45.5833 -122.5833 308° West  Level FlightAware Approximate

Login

Don't have an account? Register now (free) for customized features, flight alerts, and more!